sensor_id;sensor_type;location;lat;lon;timestamp;pressure;altitude;pressure_sealevel;temperature;humidity
82858;BME280;72620;47.774;9.620;2024-03-02T00:00:40;95236.34;;;4.75;93.56
82858;BME280;72620;47.774;9.620;2024-03-02T00:03:07;95237.47;;;4.73;93.54
82858;BME280;72620;47.774;9.620;2024-03-02T00:05:36;95235.44;;;4.76;93.80
82858;BME280;72620;47.774;9.620;2024-03-02T00:08:06;95241.31;;;4.77;94.08
82858;BME280;72620;47.774;9.620;2024-03-02T00:10:36;95243.88;;;4.77;94.35
82858;BME280;72620;47.774;9.620;2024-03-02T00:13:08;95240.00;;;4.73;94.21
82858;BME280;72620;47.774;9.620;2024-03-02T00:15:54;95244.28;;;4.72;94.90
82858;BME280;72620;47.774;9.620;2024-03-02T00:18:26;95250.94;;;4.73;94.27
82858;BME280;72620;47.774;9.620;2024-03-02T00:20:58;95246.81;;;4.72;94.19
82858;BME280;72620;47.774;9.620;2024-03-02T00:23:30;95250.94;;;4.73;93.99
82858;BME280;72620;47.774;9.620;2024-03-02T00:25:58;95250.81;;;4.75;93.94
82858;BME280;72620;47.774;9.620;2024-03-02T00:28:34;95247.63;;;4.73;93.66
82858;BME280;72620;47.774;9.620;2024-03-02T00:33:37;95252.56;;;4.74;94.80
82858;BME280;72620;47.774;9.620;2024-03-02T00:36:06;95250.69;;;4.76;94.72
82858;BME280;72620;47.774;9.620;2024-03-02T00:38:44;95250.41;;;4.79;94.30
82858;BME280;72620;47.774;9.620;2024-03-02T00:41:24;95251.50;;;4.77;94.73
82858;BME280;72620;47.774;9.620;2024-03-02T00:46:35;95240.00;;;4.73;94.67
82858;BME280;72620;47.774;9.620;2024-03-02T00:49:05;95238.38;;;4.72;94.54
82858;BME280;72620;47.774;9.620;2024-03-02T00:51:49;95239.69;;;4.76;93.74
82858;BME280;72620;47.774;9.620;2024-03-02T00:54:25;95238.91;;;4.75;93.71
82858;BME280;72620;47.774;9.620;2024-03-02T00:56:53;95229.97;;;4.71;93.61
82858;BME280;72620;47.774;9.620;2024-03-02T00:59:23;95231.69;;;4.71;93.69
82858;BME280;72620;47.774;9.620;2024-03-02T01:01:51;95231.19;;;4.67;93.72
82858;BME280;72620;47.774;9.620;2024-03-02T01:04:19;95232.69;;;4.60;93.78
82858;BME280;72620;47.774;9.620;2024-03-02T01:06:46;95241.38;;;4.58;93.48
82858;BME280;72620;47.774;9.620;2024-03-02T01:09:13;95236.44;;;4.56;93.43
82858;BME280;72620;47.774;9.620;2024-03-02T01:11:40;95240.88;;;4.54;93.55
82858;BME280;72620;47.774;9.620;2024-03-02T01:14:08;95237.78;;;4.51;92.83
82858;BME280;72620;47.774;9.620;2024-03-02T01:16:35;95231.94;;;4.50;94.17
82858;BME280;72620;47.774;9.620;2024-03-02T01:19:02;95223.50;;;4.50;93.88
82858;BME280;72620;47.774;9.620;2024-03-02T01:21:29;95232.59;;;4.52;93.65
82858;BME280;72620;47.774;9.620;2024-03-02T01:23:56;95237.66;;;4.52;92.91
82858;BME280;72620;47.774;9.620;2024-03-02T01:26:23;95234.16;;;4.53;92.93
82858;BME280;72620;47.774;9.620;2024-03-02T01:28:51;95242.44;;;4.55;92.87
82858;BME280;72620;47.774;9.620;2024-03-02T01:31:18;95243.25;;;4.56;92.80
82858;BME280;72620;47.774;9.620;2024-03-02T01:33:45;95243.25;;;4.56;92.80
82858;BME280;72620;47.774;9.620;2024-03-02T01:36:13;95253.03;;;4.51;93.86
82858;BME280;72620;47.774;9.620;2024-03-02T01:38:40;95258.00;;;4.52;93.92
82858;BME280;72620;47.774;9.620;2024-03-02T01:41:08;95256.38;;;4.51;94.18
82858;BME280;72620;47.774;9.620;2024-03-02T01:43:35;95258.25;;;4.49;93.84
82858;BME280;72620;47.774;9.620;2024-03-02T01:46:07;95258.09;;;4.51;94.31
82858;BME280;72620;47.774;9.620;2024-03-02T01:48:34;95265.72;;;4.51;93.98
82858;BME280;72620;47.774;9.620;2024-03-02T01:51:01;95268.16;;;4.52;93.67
82858;BME280;72620;47.774;9.620;2024-03-02T01:53:28;95266.28;;;4.54;93.61
82858;BME280;72620;47.774;9.620;2024-03-02T01:55:56;95273.47;;;4.59;93.14
82858;BME280;72620;47.774;9.620;2024-03-02T01:58:23;95275.38;;;4.57;93.35
82858;BME280;72620;47.774;9.620;2024-03-02T02:00:50;95278.03;;;4.55;92.88
82858;BME280;72620;47.774;9.620;2024-03-02T02:03:18;95279.91;;;4.53;92.93
82858;BME280;72620;47.774;9.620;2024-03-02T02:05:45;95271.63;;;4.51;93.09
82858;BME280;72620;47.774;9.620;2024-03-02T02:08:14;95279.41;;;4.50;92.82
82858;BME280;72620;47.774;9.620;2024-03-02T02:10:41;95283.41;;;4.43;93.43
82858;BME280;72620;47.774;9.620;2024-03-02T02:13:09;95283.41;;;4.43;93.43
82858;BME280;72620;47.774;9.620;2024-03-02T02:15:36;95275.66;;;4.44;93.21
82858;BME280;72620;47.774;9.620;2024-03-02T02:18:03;95277.00;;;4.48;93.07
82858;BME280;72620;47.774;9.620;2024-03-02T02:20:31;95283.66;;;4.49;93.02
82858;BME280;72620;47.774;9.620;2024-03-02T02:23:03;95272.84;;;4.47;93.71
82858;BME280;72620;47.774;9.620;2024-03-02T02:25:32;95284.88;;;4.45;93.77
82858;BME280;72620;47.774;9.620;2024-03-02T02:27:59;95285.81;;;4.44;94.63
82858;BME280;72620;47.774;9.620;2024-03-02T02:30:30;95273.09;;;4.44;93.37
82858;BME280;72620;47.774;9.620;2024-03-02T02:32:59;95281.03;;;4.41;93.54
82858;BME280;72620;47.774;9.620;2024-03-02T02:35:26;95282.09;;;4.48;93.37
82858;BME280;72620;47.774;9.620;2024-03-02T02:37:55;95272.59;;;4.50;93.15
82858;BME280;72620;47.774;9.620;2024-03-02T02:40:23;95263.59;;;4.56;93.73
82858;BME280;72620;47.774;9.620;2024-03-02T02:42:50;95257.44;;;4.58;93.25
82858;BME280;72620;47.774;9.620;2024-03-02T02:45:20;95257.44;;;4.58;93.07
82858;BME280;72620;47.774;9.620;2024-03-02T02:47:48;95252.34;;;4.58;92.87
82858;BME280;72620;47.774;9.620;2024-03-02T02:50:15;95250.75;;;4.57;92.73
82858;BME280;72620;47.774;9.620;2024-03-02T02:52:43;95252.63;;;4.55;93.78
82858;BME280;72620;47.774;9.620;2024-03-02T02:55:13;95253.31;;;4.57;93.40
82858;BME280;72620;47.774;9.620;2024-03-02T02:57:42;95255.84;;;4.57;93.06
82858;BME280;72620;47.774;9.620;2024-03-02T03:00:14;95259.56;;;4.53;93.45
82858;BME280;72620;47.774;9.620;2024-03-02T03:02:48;95258.81;;;4.53;92.93
82858;BME280;72620;47.774;9.620;2024-03-02T03:05:18;95258.81;;;4.53;92.93
82858;BME280;72620;47.774;9.620;2024-03-02T03:07:45;95269.31;;;4.58;92.99
82858;BME280;72620;47.774;9.620;2024-03-02T03:10:15;95262.50;;;4.58;92.44
82858;BME280;72620;47.774;9.620;2024-03-02T03:12:43;95258.00;;;4.52;92.83
82858;BME280;72620;47.774;9.620;2024-03-02T03:15:11;95241.78;;;4.53;92.29
82858;BME280;72620;47.774;9.620;2024-03-02T03:17:40;95246.75;;;4.55;92.35
82858;BME280;72620;47.774;9.620;2024-03-02T03:20:08;95241.53;;;4.56;92.22
82858;BME280;72620;47.774;9.620;2024-03-02T03:22:38;95251.41;;;4.59;92.38
82858;BME280;72620;47.774;9.620;2024-03-02T03:25:06;95243.66;;;4.61;92.22
82858;BME280;72620;47.774;9.620;2024-03-02T03:27:37;95247.00;;;4.61;92.41
82858;BME280;72620;47.774;9.620;2024-03-02T03:30:05;95249.28;;;4.55;93.53
82858;BME280;72620;47.774;9.620;2024-03-02T03:32:33;95256.91;;;4.55;93.21
82858;BME280;72620;47.774;9.620;2024-03-02T03:35:00;95255.84;;;4.57;93.72
82858;BME280;72620;47.774;9.620;2024-03-02T03:37:28;95266.94;;;4.56;93.66
82858;BME280;72620;47.774;9.620;2024-03-02T03:40:02;95261.19;;;4.54;93.78
82858;BME280;72620;47.774;9.620;2024-03-02T03:42:30;95262.00;;;4.55;93.51
82858;BME280;72620;47.774;9.620;2024-03-02T03:44:57;95261.19;;;4.54;94.53
82858;BME280;72620;47.774;9.620;2024-03-02T03:47:25;95269.22;;;4.59;93.42
82858;BME280;72620;47.774;9.620;2024-03-02T03:49:52;95259.41;;;4.64;93.03
82858;BME280;72620;47.774;9.620;2024-03-02T03:52:20;95259.28;;;4.66;93.18
82858;BME280;72620;47.774;9.620;2024-03-02T03:54:48;95260.38;;;4.63;92.80
82858;BME280;72620;47.774;9.620;2024-03-02T03:57:15;95265.88;;;4.59;93.28
82858;BME280;72620;47.774;9.620;2024-03-02T03:59:43;95268.00;;;4.54;93.68
82858;BME280;72620;47.774;9.620;2024-03-02T04:02:11;95265.47;;;4.54;94.04
82858;BME280;72620;47.774;9.620;2024-03-02T04:04:39;95267.88;;;4.55;93.65
82858;BME280;72620;47.774;9.620;2024-03-02T04:07:06;95264.53;;;4.55;93.25
82858;BME280;72620;47.774;9.620;2024-03-02T04:09:34;95266.94;;;4.56;93.12
82858;BME280;72620;47.774;9.620;2024-03-02T04:12:01;95268.56;;;4.57;92.76
82858;BME280;72620;47.774;9.620;2024-03-02T04:14:28;95268.00;;;4.54;92.88
82858;BME280;72620;47.774;9.620;2024-03-02T04:16:57;95272.59;;;4.50;93.20
82858;BME280;72620;47.774;9.620;2024-03-02T04:19:24;95279.53;;;4.48;92.69
82858;BME280;72620;47.774;9.620;2024-03-02T04:21:51;95285.81;;;4.44;93.44
82858;BME280;72620;47.774;9.620;2024-03-02T04:24:19;95281.28;;;4.38;93.02
82858;BME280;72620;47.774;9.620;2024-03-02T04:26:46;95282.25;;;4.37;93.40
82858;BME280;72620;47.774;9.620;2024-03-02T04:29:13;95283.97;;;4.36;93.58
82858;BME280;72620;47.774;9.620;2024-03-02T04:31:40;95281.69;;;4.33;93.72
82858;BME280;72620;47.774;9.620;2024-03-02T04:34:07;95285.97;;;4.33;93.36
82858;BME280;72620;47.774;9.620;2024-03-02T04:36:34;95279.00;;;4.35;93.56
82858;BME280;72620;47.774;9.620;2024-03-02T04:39:02;95277.16;;;4.37;94.06
82858;BME280;72620;47.774;9.620;2024-03-02T04:41:29;95269.25;;;4.40;94.92
82858;BME280;72620;47.774;9.620;2024-03-02T04:43:56;95263.25;;;4.41;94.61
82858;BME280;72620;47.774;9.620;2024-03-02T04:46:23;95261.06;;;4.46;93.76
82858;BME280;72620;47.774;9.620;2024-03-02T04:48:51;95261.59;;;4.50;93.71
82858;BME280;72620;47.774;9.620;2024-03-02T04:51:22;95268.16;;;4.52;94.02
82858;BME280;72620;47.774;9.620;2024-03-02T04:53:49;95272.16;;;4.55;93.28
82858;BME280;72620;47.774;9.620;2024-03-02T04:56:16;95277.09;;;4.56;93.54
82858;BME280;72620;47.774;9.620;2024-03-02T04:58:59;95272.03;;;4.56;93.11
82858;BME280;72620;47.774;9.620;2024-03-02T05:01:26;95275.47;;;4.55;93.39
82858;BME280;72620;47.774;9.620;2024-03-02T05:03:53;95284.16;;;4.62;95.77
82858;BME280;72620;47.774;9.620;2024-03-02T05:06:21;95282.66;;;4.69;95.05
82858;BME280;72620;47.774;9.620;2024-03-02T05:08:48;95282.25;;;4.74;95.87
82858;BME280;72620;47.774;9.620;2024-03-02T05:11:15;95290.53;;;4.76;94.14
82858;BME280;72620;47.774;9.620;2024-03-02T05:14:01;95279.69;;;4.83;95.03
82858;BME280;72620;47.774;9.620;2024-03-02T05:16:28;95277.22;;;4.91;94.91
82858;BME280;72620;47.774;9.620;2024-03-02T05:18:56;95277.63;;;4.96;94.83
82858;BME280;72620;47.774;9.620;2024-03-02T05:21:23;95273.34;;;4.97;93.69
82858;BME280;72620;47.774;9.620;2024-03-02T05:23:50;95278.00;;;5.01;93.79
82858;BME280;72620;47.774;9.620;2024-03-02T05:26:17;95276.38;;;5.00;94.09
82858;BME280;72620;47.774;9.620;2024-03-02T05:28:44;95281.47;;;5.00;93.05
82858;BME280;72620;47.774;9.620;2024-03-02T05:31:15;95282.44;;;4.99;93.28
82858;BME280;72620;47.774;9.620;2024-03-02T05:33:43;95284.31;;;4.97;92.75
82858;BME280;72620;47.774;9.620;2024-03-02T05:36:11;95290.34;;;4.96;93.08
82858;BME280;72620;47.774;9.620;2024-03-02T05:38:38;95287.63;;;4.98;93.36
82858;BME280;72620;47.774;9.620;2024-03-02T05:41:05;95297.97;;;4.96;93.16
82858;BME280;72620;47.774;9.620;2024-03-02T05:43:32;95300.50;;;4.96;92.82
82858;BME280;72620;47.774;9.620;2024-03-02T05:45:59;95301.59;;;4.94;92.86
82858;BME280;72620;47.774;9.620;2024-03-02T05:48:27;95306.16;;;4.90;93.01
82858;BME280;72620;47.774;9.620;2024-03-02T05:50:54;95298.78;;;4.87;93.31
82858;BME280;72620;47.774;9.620;2024-03-02T05:53:21;95304.69;;;4.88;93.59
82858;BME280;72620;47.774;9.620;2024-03-02T05:55:48;95304.53;;;4.89;93.52
82858;BME280;72620;47.774;9.620;2024-03-02T05:58:20;95310.28;;;4.91;93.41
82858;BME280;72620;47.774;9.620;2024-03-02T06:00:47;95298.78;;;4.97;93.67
82858;BME280;72620;47.774;9.620;2024-03-02T06:03:14;95305.31;;;4.99;93.53
82858;BME280;72620;47.774;9.620;2024-03-02T06:05:42;95296.72;;;5.00;93.23
82858;BME280;72620;47.774;9.620;2024-03-02T06:08:09;95295.81;;;5.01;93.29
82858;BME280;72620;47.774;9.620;2024-03-02T06:10:36;95305.03;;;5.02;92.93
82858;BME280;72620;47.774;9.620;2024-03-02T06:13:03;95295.81;;;5.01;93.18
82858;BME280;72620;47.774;9.620;2024-03-02T06:15:30;95302.47;;;5.02;92.92
82858;BME280;72620;47.774;9.620;2024-03-02T06:17:58;95291.66;;;5.00;92.57
82858;BME280;72620;47.774;9.620;2024-03-02T06:20:25;95298.47;;;5.00;92.86
82858;BME280;72620;47.774;9.620;2024-03-02T06:22:53;95298.78;;;4.97;92.73
82858;BME280;72620;47.774;9.620;2024-03-02T06:25:20;95291.94;;;4.97;93.04
82858;BME280;72620;47.774;9.620;2024-03-02T06:27:47;95301.16;;;4.98;93.05
82858;BME280;72620;47.774;9.620;2024-03-02T06:30:15;95306.25;;;4.98;93.15
82858;BME280;72620;47.774;9.620;2024-03-02T06:32:42;95302.13;;;4.97;93.34
82858;BME280;72620;47.774;9.620;2024-03-02T06:35:10;95301.00;;;5.00;93.19
82858;BME280;72620;47.774;9.620;2024-03-02T06:37:38;95304.50;;;4.99;94.08
82858;BME280;72620;47.774;9.620;2024-03-02T06:40:07;95310.25;;;5.01;94.58
82858;BME280;72620;47.774;9.620;2024-03-02T06:42:35;95310.75;;;5.04;93.79
82858;BME280;72620;47.774;9.620;2024-03-02T06:45:03;95308.91;;;5.06;92.68
82858;BME280;72620;47.774;9.620;2024-03-02T06:47:30;95310.66;;;5.06;92.96
82858;BME280;72620;47.774;9.620;2024-03-02T06:49:58;95306.06;;;5.09;92.61
82858;BME280;72620;47.774;9.620;2024-03-02T06:52:25;95312.78;;;5.10;92.61
82858;BME280;72620;47.774;9.620;2024-03-02T06:54:52;95312.78;;;5.10;92.61
82858;BME280;72620;47.774;9.620;2024-03-02T06:57:19;95306.88;;;5.10;92.76
82858;BME280;72620;47.774;9.620;2024-03-02T06:59:47;95305.13;;;5.10;92.86
82858;BME280;72620;47.774;9.620;2024-03-02T07:02:17;95303.53;;;5.09;92.46
82858;BME280;72620;47.774;9.620;2024-03-02T07:04:44;95307.81;;;5.09;91.92
82858;BME280;72620;47.774;9.620;2024-03-02T07:07:12;95311.03;;;5.11;92.36
82858;BME280;72620;47.774;9.620;2024-03-02T07:09:39;95312.78;;;5.10;91.82
82858;BME280;72620;47.774;9.620;2024-03-02T07:12:07;95312.22;;;5.07;92.05
82858;BME280;72620;47.774;9.620;2024-03-02T07:14:34;95313.03;;;5.07;92.85
82858;BME280;72620;47.774;9.620;2024-03-02T07:17:20;95317.44;;;5.15;93.47
82858;BME280;72620;47.774;9.620;2024-03-02T07:19:47;95315.97;;;5.12;92.37
82858;BME280;72620;47.774;9.620;2024-03-02T07:22:14;95317.00;;;5.20;92.61
82858;BME280;72620;47.774;9.620;2024-03-02T07:24:44;95318.84;;;5.27;92.08
82858;BME280;72620;47.774;9.620;2024-03-02T07:27:13;95321.25;;;5.29;90.95
82858;BME280;72620;47.774;9.620;2024-03-02T07:29:40;95318.13;;;5.35;91.86
82858;BME280;72620;47.774;9.620;2024-03-02T07:32:08;95320.41;;;5.38;90.76
82858;BME280;72620;47.774;9.620;2024-03-02T07:34:36;95320.94;;;5.32;91.33
82858;BME280;72620;47.774;9.620;2024-03-02T07:37:04;95316.25;;;5.37;91.50
82858;BME280;72620;47.774;9.620;2024-03-02T07:39:32;95313.56;;;5.38;91.21
82858;BME280;72620;47.774;9.620;2024-03-02T07:42:00;95322.66;;;5.41;91.65
82858;BME280;72620;47.774;9.620;2024-03-02T07:44:28;95313.78;;;5.45;91.04
82858;BME280;72620;47.774;9.620;2024-03-02T07:46:55;95319.63;;;5.55;91.00
82858;BME280;72620;47.774;9.620;2024-03-02T07:49:23;95315.56;;;5.62;89.84
82858;BME280;72620;47.774;9.620;2024-03-02T07:51:50;95313.09;;;5.70;90.27
82858;BME280;72620;47.774;9.620;2024-03-02T07:54:17;95316.22;;;5.81;89.71
82858;BME280;72620;47.774;9.620;2024-03-02T07:56:45;95317.28;;;5.89;89.37
82858;BME280;72620;47.774;9.620;2024-03-02T07:59:12;95311.13;;;5.91;89.36
82858;BME280;72620;47.774;9.620;2024-03-02T08:01:40;95312.91;;;5.99;89.78
82858;BME280;72620;47.774;9.620;2024-03-02T08:04:07;95310.66;;;6.13;89.40
82858;BME280;72620;47.774;9.620;2024-03-02T08:06:34;95304.97;;;6.19;88.03
82858;BME280;72620;47.774;9.620;2024-03-02T08:09:01;95306.59;;;6.20;87.98
82858;BME280;72620;47.774;9.620;2024-03-02T08:11:31;95308.38;;;6.28;88.59
82858;BME280;72620;47.774;9.620;2024-03-02T08:13:58;95305.91;;;6.36;88.80
82858;BME280;72620;47.774;9.620;2024-03-02T08:16:26;95297.00;;;6.40;87.75
82858;BME280;72620;47.774;9.620;2024-03-02T08:18:53;95295.75;;;6.44;87.75
82858;BME280;72620;47.774;9.620;2024-03-02T08:21:20;95294.94;;;6.43;87.31
82858;BME280;72620;47.774;9.620;2024-03-02T08:23:48;95296.19;;;6.39;87.69
82858;BME280;72620;47.774;9.620;2024-03-02T08:26:15;95287.56;;;6.32;88.09
82858;BME280;72620;47.774;9.620;2024-03-02T08:28:42;95288.88;;;6.36;88.44
82858;BME280;72620;47.774;9.620;2024-03-02T08:31:10;95283.47;;;6.39;88.49
82858;BME280;72620;47.774;9.620;2024-03-02T08:33:37;95289.22;;;6.41;89.46
82858;BME280;72620;47.774;9.620;2024-03-02T08:36:05;95282.88;;;6.45;89.71
82858;BME280;72620;47.774;9.620;2024-03-02T08:38:32;95287.31;;;6.43;90.09
82858;BME280;72620;47.774;9.620;2024-03-02T08:41:00;95281.63;;;6.49;89.87
82858;BME280;72620;47.774;9.620;2024-03-02T08:43:27;95281.66;;;6.57;88.01
82858;BME280;72620;47.774;9.620;2024-03-02T08:45:54;95273.94;;;6.67;88.49
82858;BME280;72620;47.774;9.620;2024-03-02T08:48:22;95283.22;;;6.76;87.49
82858;BME280;72620;47.774;9.620;2024-03-02T08:50:49;95274.47;;;6.79;86.90
82858;BME280;72620;47.774;9.620;2024-03-02T08:53:16;95276.38;;;6.77;87.19
82858;BME280;72620;47.774;9.620;2024-03-02T08:55:46;95277.78;;;6.71;87.01
82858;BME280;72620;47.774;9.620;2024-03-02T08:58:14;95272.28;;;6.58;88.75
82858;BME280;72620;47.774;9.620;2024-03-02T09:00:41;95273.19;;;6.49;88.51
82858;BME280;72620;47.774;9.620;2024-03-02T09:03:10;95275.63;;;6.58;89.34
82858;BME280;72620;47.774;9.620;2024-03-02T09:05:37;95270.66;;;6.83;87.99
82858;BME280;72620;47.774;9.620;2024-03-02T09:08:04;95262.56;;;6.87;87.64
82858;BME280;72620;47.774;9.620;2024-03-02T09:10:32;95270.13;;;7.13;86.76
82858;BME280;72620;47.774;9.620;2024-03-02T09:13:00;95273.03;;;7.60;85.35
82858;BME280;72620;47.774;9.620;2024-03-02T09:15:27;95264.75;;;8.22;83.79
82858;BME280;72620;47.774;9.620;2024-03-02T09:17:54;95260.66;;;8.92;80.43
82858;BME280;72620;47.774;9.620;2024-03-02T09:20:22;95250.41;;;9.62;76.46
82858;BME280;72620;47.774;9.620;2024-03-02T09:22:50;95249.88;;;10.19;75.51
82858;BME280;72620;47.774;9.620;2024-03-02T09:25:17;95241.66;;;10.76;72.93
82858;BME280;72620;47.774;9.620;2024-03-02T09:27:44;95250.25;;;11.48;70.77
82858;BME280;72620;47.774;9.620;2024-03-02T09:30:11;95245.44;;;11.95;68.09
82858;BME280;72620;47.774;9.620;2024-03-02T09:32:40;95248.63;;;12.40;67.33
82858;BME280;72620;47.774;9.620;2024-03-02T09:35:07;95250.69;;;12.85;67.53
82858;BME280;72620;47.774;9.620;2024-03-02T09:37:35;95235.47;;;13.24;64.98
82858;BME280;72620;47.774;9.620;2024-03-02T09:40:03;95232.19;;;13.50;62.36
82858;BME280;72620;47.774;9.620;2024-03-02T09:42:31;95236.59;;;13.08;64.52
82858;BME280;72620;47.774;9.620;2024-03-02T09:44:59;95239.53;;;12.44;66.34
82858;BME280;72620;47.774;9.620;2024-03-02T09:47:26;95233.47;;;11.81;69.61
82858;BME280;72620;47.774;9.620;2024-03-02T09:49:54;95234.28;;;11.52;71.67
82858;BME280;72620;47.774;9.620;2024-03-02T09:52:23;95232.25;;;11.48;70.62
82858;BME280;72620;47.774;9.620;2024-03-02T09:54:50;95229.59;;;11.92;69.42
82858;BME280;72620;47.774;9.620;2024-03-02T09:57:18;95226.78;;;12.35;66.96
82858;BME280;72620;47.774;9.620;2024-03-02T09:59:45;95224.38;;;12.89;66.69
82858;BME280;72620;47.774;9.620;2024-03-02T10:02:12;95226.28;;;13.08;66.10
82858;BME280;72620;47.774;9.620;2024-03-02T10:04:39;95213.84;;;13.19;64.52
82858;BME280;72620;47.774;9.620;2024-03-02T10:07:14;95213.44;;;13.15;63.78
82858;BME280;72620;47.774;9.620;2024-03-02T10:09:44;95219.84;;;12.57;64.24
82858;BME280;72620;47.774;9.620;2024-03-02T10:12:15;95211.50;;;11.64;67.77
82858;BME280;72620;47.774;9.620;2024-03-02T10:14:43;95222.50;;;11.22;69.04
82858;BME280;72620;47.774;9.620;2024-03-02T10:17:13;95209.66;;;11.58;70.62
82858;BME280;72620;47.774;9.620;2024-03-02T10:19:42;95200.72;;;11.54;69.52
82858;BME280;72620;47.774;9.620;2024-03-02T10:22:10;95203.56;;;10.94;71.29
82858;BME280;72620;47.774;9.620;2024-03-02T10:24:41;95194.22;;;10.57;71.87
82858;BME280;72620;47.774;9.620;2024-03-02T10:27:22;95196.69;;;10.51;73.69
82858;BME280;72620;47.774;9.620;2024-03-02T10:29:53;95188.47;;;10.70;73.43
82858;BME280;72620;47.774;9.620;2024-03-02T10:32:22;95181.63;;;11.42;72.73
82858;BME280;72620;47.774;9.620;2024-03-02T10:34:50;95186.03;;;12.11;70.75
82858;BME280;72620;47.774;9.620;2024-03-02T10:37:17;95174.28;;;12.23;69.78
82858;BME280;72620;47.774;9.620;2024-03-02T10:39:46;95175.91;;;12.03;70.46
82858;BME280;72620;47.774;9.620;2024-03-02T10:42:15;95174.75;;;11.85;73.25
82858;BME280;72620;47.774;9.620;2024-03-02T10:44:43;95172.06;;;11.72;71.72
82858;BME280;72620;47.774;9.620;2024-03-02T10:47:12;95166.47;;;11.68;71.96
82858;BME280;72620;47.774;9.620;2024-03-02T10:49:42;95159.00;;;11.52;73.68
82858;BME280;72620;47.774;9.620;2024-03-02T10:52:10;95152.88;;;11.32;75.02
82858;BME280;72620;47.774;9.620;2024-03-02T10:54:38;95145.53;;;11.29;74.35
82858;BME280;72620;47.774;9.620;2024-03-02T10:57:07;95141.97;;;11.51;73.30
82858;BME280;72620;47.774;9.620;2024-03-02T10:59:49;95140.63;;;11.55;73.97
82858;BME280;72620;47.774;9.620;2024-03-02T11:02:21;95132.13;;;11.54;73.66
82858;BME280;72620;47.774;9.620;2024-03-02T11:04:54;95124.84;;;11.79;72.76
82858;BME280;72620;47.774;9.620;2024-03-02T11:07:22;95127.16;;;11.95;75.04
82858;BME280;72620;47.774;9.620;2024-03-02T11:09:57;95123.00;;;12.22;71.22
82858;BME280;72620;47.774;9.620;2024-03-02T11:12:42;95114.34;;;12.29;72.01
82858;BME280;72620;47.774;9.620;2024-03-02T11:15:24;95102.56;;;12.48;70.27
82858;BME280;72620;47.774;9.620;2024-03-02T11:17:54;95094.69;;;12.56;71.09
82858;BME280;72620;47.774;9.620;2024-03-02T11:20:25;95103.50;;;12.75;69.21
82858;BME280;72620;47.774;9.620;2024-03-02T11:22:53;95099.59;;;12.92;68.80
82858;BME280;72620;47.774;9.620;2024-03-02T11:25:25;95094.22;;;12.93;68.44
82858;BME280;72620;47.774;9.620;2024-03-02T11:33:03;95084.06;;;13.26;68.28
82858;BME280;72620;47.774;9.620;2024-03-02T11:35:46;95080.66;;;13.19;68.23
82858;BME280;72620;47.774;9.620;2024-03-02T11:38:14;95071.84;;;12.94;67.96
82858;BME280;72620;47.774;9.620;2024-03-02T11:40:41;95071.44;;;12.84;69.00
82858;BME280;72620;47.774;9.620;2024-03-02T11:43:09;95066.50;;;12.89;68.77
82858;BME280;72620;47.774;9.620;2024-03-02T11:45:38;95069.53;;;13.05;69.92
82858;BME280;72620;47.774;9.620;2024-03-02T11:48:14;95064.41;;;13.12;67.26
82858;BME280;72620;47.774;9.620;2024-03-02T11:50:51;95052.16;;;13.34;64.97
82858;BME280;72620;47.774;9.620;2024-03-02T11:53:20;95040.66;;;13.43;64.49
82858;BME280;72620;47.774;9.620;2024-03-02T11:55:49;95040.25;;;13.59;62.87
82858;BME280;72620;47.774;9.620;2024-03-02T11:58:16;95031.91;;;13.70;63.83
82858;BME280;72620;47.774;9.620;2024-03-02T12:00:50;95026.31;;;14.06;60.51
82858;BME280;72620;47.774;9.620;2024-03-02T12:03:24;95027.66;;;14.28;60.42
82858;BME280;72620;47.774;9.620;2024-03-02T12:05:55;95019.06;;;14.53;61.59
82858;BME280;72620;47.774;9.620;2024-03-02T12:08:22;95016.63;;;14.65;58.24
82858;BME280;72620;47.774;9.620;2024-03-02T12:11:01;95010.63;;;14.71;57.20
82858;BME280;72620;47.774;9.620;2024-03-02T12:13:30;95009.47;;;14.67;59.27
82858;BME280;72620;47.774;9.620;2024-03-02T12:15:58;95004.28;;;14.67;57.90
82858;BME280;72620;47.774;9.620;2024-03-02T12:18:26;95001.53;;;14.62;56.00
82858;BME280;72620;47.774;9.620;2024-03-02T12:20:53;94994.88;;;14.48;55.23
82858;BME280;72620;47.774;9.620;2024-03-02T12:23:24;95002.25;;;14.38;54.58
82858;BME280;72620;47.774;9.620;2024-03-02T12:25:52;94992.75;;;14.32;55.73
82858;BME280;72620;47.774;9.620;2024-03-02T12:28:20;94986.31;;;14.47;55.19
82858;BME280;72620;47.774;9.620;2024-03-02T12:30:48;94989.69;;;14.48;55.19
82858;BME280;72620;47.774;9.620;2024-03-02T12:33:17;94988.88;;;14.54;51.79
82858;BME280;72620;47.774;9.620;2024-03-02T12:35:44;94984.69;;;14.53;49.96
82858;BME280;72620;47.774;9.620;2024-03-02T12:38:11;94971.47;;;14.36;50.35
82858;BME280;72620;47.774;9.620;2024-03-02T12:40:38;94974.94;;;14.55;50.67
82858;BME280;72620;47.774;9.620;2024-03-02T12:43:06;94962.97;;;14.67;52.51
82858;BME280;72620;47.774;9.620;2024-03-02T12:45:34;94962.25;;;14.53;53.19
82858;BME280;72620;47.774;9.620;2024-03-02T12:48:02;94961.50;;;14.46;50.50
82858;BME280;72620;47.774;9.620;2024-03-02T12:50:31;94950.88;;;14.30;51.37
82858;BME280;72620;47.774;9.620;2024-03-02T12:52:59;94952.88;;;14.08;52.17
82858;BME280;72620;47.774;9.620;2024-03-02T12:55:27;94951.34;;;13.94;50.63
82858;BME280;72620;47.774;9.620;2024-03-02T12:57:56;94949.19;;;13.91;49.14
82858;BME280;72620;47.774;9.620;2024-03-02T13:00:23;94943.81;;;13.93;50.19
82858;BME280;72620;47.774;9.620;2024-03-02T13:02:52;94942.59;;;14.02;50.52
82858;BME280;72620;47.774;9.620;2024-03-02T13:05:19;94956.03;;;14.17;47.43
82858;BME280;72620;47.774;9.620;2024-03-02T13:07:47;94942.31;;;14.23;46.14
82858;BME280;72620;47.774;9.620;2024-03-02T13:10:16;94933.56;;;14.24;47.45
82858;BME280;72620;47.774;9.620;2024-03-02T13:12:45;94936.88;;;14.44;45.33
82858;BME280;72620;47.774;9.620;2024-03-02T13:15:12;94930.69;;;14.51;46.60
82858;BME280;72620;47.774;9.620;2024-03-02T13:17:45;94925.66;;;14.63;47.77
82858;BME280;72620;47.774;9.620;2024-03-02T13:20:15;94922.19;;;14.76;46.93
82858;BME280;72620;47.774;9.620;2024-03-02T13:22:42;94924.16;;;14.80;46.99
82858;BME280;72620;47.774;9.620;2024-03-02T13:25:09;94920.38;;;14.83;47.63